Time;durP1;ratioP1;P1;durP2;ratioP2;P2;SDS_P1;SDS_P2;PMS_P1;PMS_P2;Temp;Humidity;BMP_temperature;BMP_pressure;BME280_temperature;BME280_humidity;BME280_pressure;Samples;Min_cycle;Max_cycle;Signal;HPM_P1;HPM_P2
2021/06/26 00:01:55;;;;;;;3.40;3.10;;;17.40;99.90;;;;;;5050186;28;20033;-52
2021/06/26 00:04:20;;;;;;;2.97;2.78;;;17.40;99.90;;;;;;5049314;28;20033;-53
2021/06/26 00:06:46;;;;;;;5.95;3.03;;;17.30;99.90;;;;;;5050496;28;20053;-50
2021/06/26 00:09:11;;;;;;;3.70;3.28;;;17.30;99.90;;;;;;5050283;28;20429;-47
2021/06/26 00:11:37;;;;;;;3.80;3.42;;;17.30;99.90;;;;;;5050419;28;20531;-55
2021/06/26 00:14:03;;;;;;;4.05;3.63;;;17.30;99.90;;;;;;5050193;28;20029;-48
2021/06/26 00:16:29;;;;;;;4.30;3.90;;;17.20;99.90;;;;;;5050318;28;20098;-50
2021/06/26 00:18:54;;;;;;;5.32;4.15;;;17.20;99.90;;;;;;5048825;28;20106;-52
2021/06/26 00:21:20;;;;;;;3.22;2.92;;;17.10;99.90;;;;;;5050356;28;20447;-49
2021/06/26 00:23:45;;;;;;;4.13;3.72;;;17.10;99.90;;;;;;5050329;28;20029;-48
2021/06/26 00:26:11;;;;;;;4.03;3.60;;;17.10;99.90;;;;;;5049724;28;20466;-53
2021/06/26 00:28:37;;;;;;;4.38;3.97;;;17.10;99.90;;;;;;5050179;28;20599;-50
2021/06/26 00:31:02;;;;;;;5.50;4.10;;;17.10;99.90;;;;;;5043476;28;20100;-46
2021/06/26 00:33:28;;;;;;;3.88;3.50;;;17.10;99.90;;;;;;5040252;28;20029;-48
2021/06/26 00:35:53;;;;;;;6.22;4.18;;;17.00;99.90;;;;;;5046391;28;20026;-52
2021/06/26 00:38:19;;;;;;;3.63;3.33;;;17.00;99.90;;;;;;5050276;28;20379;-52
2021/06/26 00:40:44;;;;;;;3.35;3.05;;;17.00;99.90;;;;;;5049991;28;20087;-54
2021/06/26 00:43:10;;;;;;;3.72;3.33;;;16.90;99.90;;;;;;5049846;28;20060;-47
2021/06/26 00:45:35;;;;;;;5.38;4.15;;;16.90;99.90;;;;;;5050170;28;20092;-48
2021/06/26 00:48:01;;;;;;;3.45;3.15;;;16.90;99.90;;;;;;5052492;28;20057;-54
2021/06/26 00:50:29;;;;;;;4.47;4.07;;;16.80;99.90;;;;;;5052623;28;20634;-54
2021/06/26 00:52:55;;;;;;;4.55;3.97;;;16.80;99.90;;;;;;5052432;28;20060;-46
2021/06/26 00:55:21;;;;;;;3.90;3.53;;;16.70;99.90;;;;;;5053728;28;20032;-51
2021/06/26 00:58:01;;;;;;;5.60;3.97;;;16.70;99.90;;;;;;5053703;28;20032;-52
2021/06/26 01:00:29;;;;;;;4.55;3.97;;;16.60;99.90;;;;;;5053002;28;20052;-53
2021/06/26 01:02:55;;;;;;;4.43;4.03;;;16.60;99.90;;;;;;5053126;28;20465;-52
2021/06/26 01:05:21;;;;;;;5.72;4.20;;;16.50;99.90;;;;;;5052620;28;20043;-47
2021/06/26 01:07:47;;;;;;;4.70;4.00;;;16.50;99.90;;;;;;5052430;28;20072;-52
2021/06/26 01:10:13;;;;;;;4.03;3.47;;;16.40;99.90;;;;;;5039178;28;20033;-48
2021/06/26 01:12:39;;;;;;;4.53;3.65;;;16.40;99.90;;;;;;5053557;28;20029;-51
2021/06/26 01:15:06;;;;;;;5.25;4.53;;;16.30;99.90;;;;;;5053158;28;20539;-48
2021/06/26 01:17:32;;;;;;;5.85;4.72;;;16.20;99.90;;;;;;5053363;28;20404;-50
2021/06/26 01:19:58;;;;;;;4.60;4.10;;;16.20;99.90;;;;;;5051876;28;20033;-53
2021/06/26 01:22:27;;;;;;;4.88;4.15;;;16.10;99.90;;;;;;5053409;28;20112;-48
2021/06/26 01:24:53;;;;;;;4.18;3.78;;;16.10;99.90;;;;;;5053089;28;20411;-50
2021/06/26 01:27:19;;;;;;;5.80;4.72;;;16.00;99.90;;;;;;5053218;28;20021;-48
2021/06/26 01:29:53;;;;;;;5.47;4.43;;;16.00;99.90;;;;;;5053081;28;20140;-48
2021/06/26 01:32:19;;;;;;;6.63;4.53;;;16.00;99.90;;;;;;5037846;28;20092;-50
2021/06/26 01:34:46;;;;;;;6.70;5.55;;;16.00;99.90;;;;;;5051770;28;20029;-51
2021/06/26 01:37:12;;;;;;;6.25;4.82;;;15.90;99.90;;;;;;5049730;28;20192;-51
2021/06/26 01:39:38;;;;;;;5.07;4.30;;;15.90;99.90;;;;;;5052781;28;20031;-50
2021/06/26 01:42:05;;;;;;;5.28;4.63;;;15.90;99.90;;;;;;5052821;28;20476;-49
2021/06/26 01:44:30;;;;;;;4.57;3.78;;;15.90;99.90;;;;;;5052774;28;20029;-48
2021/06/26 01:46:56;;;;;;;6.30;4.15;;;15.80;99.90;;;;;;5052605;28;20047;-48
2021/06/26 01:49:21;;;;;;;5.45;4.95;;;15.80;99.90;;;;;;5051577;28;20036;-52
2021/06/26 01:51:47;;;;;;;3.42;3.13;;;15.70;99.90;;;;;;5052407;28;20037;-54
2021/06/26 01:54:13;;;;;;;4.63;4.10;;;15.70;99.90;;;;;;5052540;28;20108;-52
2021/06/26 01:56:39;;;;;;;4.28;3.63;;;15.60;99.90;;;;;;5052369;28;20021;-48
2021/06/26 01:59:05;;;;;;;5.28;4.18;;;15.50;99.90;;;;;;5038470;28;20037;-51
2021/06/26 02:01:32;;;;;;;4.85;4.10;;;15.40;99.90;;;;;;5014525;28;20435;-51
2021/06/26 02:03:57;;;;;;;6.63;4.90;;;15.30;99.90;;;;;;5013249;28;20100;-48
2021/06/26 02:06:23;;;;;;;4.97;3.97;;;15.20;99.90;;;;;;5012940;28;20112;-49
2021/06/26 02:08:48;;;;;;;6.28;5.13;;;15.10;99.90;;;;;;5014486;28;20041;-50
2021/06/26 02:11:14;;;;;;;5.07;4.35;;;15.00;99.90;;;;;;5014200;28;20026;-50
2021/06/26 02:13:39;;;;;;;5.63;4.72;;;14.90;99.90;;;;;;5014562;28;20026;-52
2021/06/26 02:16:05;;;;;;;3.75;3.40;;;14.80;99.90;;;;;;5012995;28;20049;-52
2021/06/26 02:18:30;;;;;;;5.60;5.00;;;14.80;99.90;;;;;;5013185;28;20022;-48
2021/06/26 02:20:56;;;;;;;4.53;3.60;;;14.60;99.90;;;;;;5013948;28;20034;-52
2021/06/26 02:23:21;;;;;;;6.28;5.07;;;14.50;99.90;;;;;;5014240;28;20037;-48
2021/06/26 02:25:47;;;;;;;3.92;3.53;;;14.50;99.90;;;;;;5013903;28;20026;-50
2021/06/26 02:28:13;;;;;;;5.13;4.32;;;14.40;99.90;;;;;;5014199;28;20025;-52
2021/06/26 02:30:38;;;;;;;4.22;3.65;;;14.30;99.90;;;;;;5016748;28;20026;-50
2021/06/26 02:33:04;;;;;;;4.57;3.50;;;14.20;99.90;;;;;;5052466;28;20083;-52
2021/06/26 02:35:30;;;;;;;6.05;4.80;;;14.20;99.90;;;;;;5048897;28;20076;-51
2021/06/26 02:37:56;;;;;;;7.32;4.78;;;14.10;99.90;;;;;;5033609;28;20092;-51
2021/06/26 02:40:21;;;;;;;4.85;4.35;;;14.10;99.90;;;;;;5033329;28;20037;-52
2021/06/26 02:42:47;;;;;;;6.43;4.93;;;14.10;99.90;;;;;;5033694;28;20443;-48
2021/06/26 02:45:13;;;;;;;4.25;3.67;;;14.10;99.90;;;;;;5033491;28;20075;-49
2021/06/26 02:47:38;;;;;;;4.32;3.92;;;14.10;99.90;;;;;;5033641;28;20040;-51
2021/06/26 02:50:05;;;;;;;4.72;3.92;;;14.10;99.90;;;;;;5032086;28;20037;-51
2021/06/26 02:52:31;;;;;;;4.95;4.35;;;14.30;99.90;;;;;;5033265;28;20071;-50
2021/06/26 02:54:58;;;;;;;5.47;4.78;;;14.30;99.90;;;;;;5033359;28;20017;-48
2021/06/26 02:57:24;;;;;;;4.15;3.75;;;14.40;99.90;;;;;;5042316;28;20496;-51
2021/06/26 02:59:49;;;;;;;4.10;3.38;;;14.40;99.90;;;;;;5052991;28;20045;-51
2021/06/26 03:02:15;;;;;;;5.65;4.47;;;14.50;99.90;;;;;;5038960;28;20025;-52
2021/06/26 03:04:41;;;;;;;4.88;4.32;;;14.50;99.90;;;;;;5031928;28;20032;-50
2021/06/26 03:07:08;;;;;;;4.35;3.85;;;14.50;99.90;;;;;;5032496;28;20108;-53
2021/06/26 03:09:34;;;;;;;5.05;4.30;;;14.50;99.90;;;;;;5032524;28;20025;-49
2021/06/26 03:11:59;;;;;;;5.15;4.57;;;14.50;99.90;;;;;;5032793;28;20029;-51
2021/06/26 03:14:25;;;;;;;6.03;4.65;;;14.50;99.90;;;;;;5032845;28;20038;-49
2021/06/26 03:16:50;;;;;;;4.18;3.50;;;14.50;99.90;;;;;;5032921;28;20029;-51
2021/06/26 03:19:16;;;;;;;5.63;4.20;;;14.50;99.90;;;;;;5031315;28;20465;-48
2021/06/26 03:21:41;;;;;;;5.30;3.92;;;14.50;99.90;;;;;;5032427;28;20100;-48
2021/06/26 03:24:07;;;;;;;5.72;5.13;;;14.50;99.90;;;;;;5032596;28;20019;-50
2021/06/26 03:26:34;;;;;;;5.75;4.13;;;14.60;99.90;;;;;;5032669;28;20024;-49
2021/06/26 03:29:03;;;;;;;5.50;4.93;;;14.70;99.90;;;;;;5032874;28;20493;-54
2021/06/26 03:31:29;;;;;;;5.47;4.82;;;14.70;99.90;;;;;;5032527;28;20060;-51
2021/06/26 03:33:55;;;;;;;7.60;5.97;;;14.80;99.90;;;;;;5031552;28;20035;-55
2021/06/26 03:36:20;;;;;;;5.60;5.00;;;14.80;99.90;;;;;;5032175;28;20034;-49
2021/06/26 03:38:46;;;;;;;6.90;6.20;;;14.90;99.90;;;;;;5032816;28;20026;-52
2021/06/26 03:41:12;;;;;;;6.22;5.47;;;15.00;99.90;;;;;;5032266;28;20027;-50
2021/06/26 03:43:38;;;;;;;6.03;5.05;;;15.40;99.90;;;;;;5032787;28;20018;-53
2021/06/26 03:46:03;;;;;;;6.88;5.38;;;16.00;99.90;;;;;;5032372;28;20022;-55
2021/06/26 03:48:29;;;;;;;5.38;4.88;;;16.70;99.90;;;;;;5031298;28;20377;-51
2021/06/26 03:50:58;;;;;;;6.15;4.80;;;17.30;99.90;;;;;;5032327;28;20033;-50
2021/06/26 03:53:28;;;;;;;6.55;4.55;;;17.90;99.90;;;;;;5032382;28;20045;-53
2021/06/26 03:55:54;;;;;;;5.65;4.50;;;18.40;99.90;;;;;;5031087;28;20026;-48
2021/06/26 03:58:21;;;;;;;5.97;4.53;;;18.50;99.90;;;;;;5032456;28;20033;-52
2021/06/26 04:00:47;;;;;;;5.05;4.55;;;18.50;99.90;;;;;;5032175;28;20045;-48
2021/06/26 04:03:13;;;;;;;7.07;4.63;;;18.30;99.90;;;;;;5030727;28;20032;-49
2021/06/26 04:05:38;;;;;;;5.40;4.85;;;18.30;99.90;;;;;;5032250;28;20025;-54
2021/06/26 04:08:04;;;;;;;5.10;4.60;;;18.50;99.90;;;;;;5032522;28;20056;-50
2021/06/26 04:10:31;;;;;;;6.15;4.35;;;18.60;99.90;;;;;;5032174;28;20045;-52
2021/06/26 04:12:56;;;;;;;5.50;3.92;;;19.20;99.90;;;;;;5032415;28;20380;-50
2021/06/26 04:15:22;;;;;;;5.10;4.68;;;19.80;99.90;;;;;;5032099;28;20033;-49
2021/06/26 04:17:47;;;;;;;5.05;4.55;;;20.40;99.90;;;;;;5032424;28;20033;-50
2021/06/26 04:20:13;;;;;;;4.88;4.22;;;21.00;99.90;;;;;;5030868;28;20381;-51
2021/06/26 04:22:39;;;;;;;5.00;4.50;;;21.60;99.90;;;;;;5035553;28;20092;-54
2021/06/26 04:25:05;;;;;;;6.38;4.70;;;22.20;99.90;;;;;;5036394;28;20033;-52
2021/06/26 04:27:31;;;;;;;4.75;4.35;;;22.70;99.90;;;;;;5036226;28;20025;-51
2021/06/26 04:29:57;;;;;;;4.18;3.65;;;23.30;97.20;;;;;;5036315;28;20029;-51
2021/06/26 04:32:24;;;;;;;4.43;4.03;;;24.00;94.20;;;;;;5035838;28;20025;-48
2021/06/26 04:34:50;;;;;;;4.82;3.70;;;24.70;92.00;;;;;;5034708;28;20097;-52
2021/06/26 04:37:17;;;;;;;4.00;3.63;;;25.20;89.90;;;;;;5035824;28;20041;-52
2021/06/26 04:39:42;;;;;;;5.80;4.50;;;25.70;87.10;;;;;;5035786;28;20427;-52
2021/06/26 04:42:08;;;;;;;5.25;4.18;;;26.00;84.20;;;;;;5036011;28;20045;-49
2021/06/26 04:44:34;;;;;;;4.63;4.20;;;26.00;82.60;;;;;;5035887;28;20488;-54
2021/06/26 04:46:59;;;;;;;4.03;3.70;;;26.30;81.30;;;;;;5035791;28;20112;-52
2021/06/26 04:49:25;;;;;;;4.45;4.00;;;26.70;79.30;;;;;;5034327;28;20112;-52
2021/06/26 04:51:50;;;;;;;4.45;4.05;;;27.00;77.00;;;;;;5035699;28;20033;-54
2021/06/26 04:54:16;;;;;;;3.97;3.58;;;27.20;76.60;;;;;;5035526;28;20414;-49
2021/06/26 04:56:41;;;;;;;4.28;3.40;;;27.50;75.60;;;;;;5035668;28;20026;-50
2021/06/26 04:59:07;;;;;;;4.22;3.83;;;27.70;74.00;;;;;;5035501;28;20382;-52
2021/06/26 05:01:32;;;;;;;4.93;3.17;;;27.90;72.50;;;;;;5035356;28;20036;-52
2021/06/26 05:03:58;;;;;;;5.30;3.75;;;27.50;72.60;;;;;;5034128;28;20018;-47
2021/06/26 05:06:23;;;;;;;4.25;3.80;;;26.90;73.90;;;;;;5035345;28;20051;-48
2021/06/26 05:08:49;;;;;;;3.47;3.08;;;26.20;74.20;;;;;;5032144;28;20496;-50
2021/06/26 05:11:15;;;;;;;3.35;2.88;;;25.60;75.00;;;;;;5030896;28;20033;-51
2021/06/26 05:13:40;;;;;;;4.30;3.55;;;25.00;75.60;;;;;;5051999;28;20032;-50
2021/06/26 05:16:06;;;;;;;4.95;3.13;;;24.60;75.50;;;;;;5053531;28;20040;-50
2021/06/26 05:18:31;;;;;;;3.05;2.75;;;24.20;76.90;;;;;;5045678;28;20066;-52
2021/06/26 05:20:57;;;;;;;3.35;3.03;;;23.90;77.90;;;;;;5053062;28;20418;-50
2021/06/26 05:23:23;;;;;;;3.88;3.03;;;23.70;78.20;;;;;;5053278;28;20044;-49
2021/06/26 05:25:48;;;;;;;4.57;3.17;;;23.60;78.60;;;;;;5049981;28;20052;-50
2021/06/26 05:28:15;;;;;;;3.65;3.33;;;23.50;78.30;;;;;;5053424;28;20032;-49
2021/06/26 05:30:41;;;;;;;4.50;3.67;;;23.50;78.20;;;;;;5051280;28;20039;-50
2021/06/26 05:33:07;;;;;;;5.90;4.00;;;23.50;78.00;;;;;;5038408;28;20047;-50
2021/06/26 05:35:33;;;;;;;4.10;3.40;;;24.20;76.70;;;;;;5048219;28;20100;-51
2021/06/26 05:37:59;;;;;;;3.95;3.47;;;25.40;74.50;;;;;;5053142;28;20041;-52
2021/06/26 05:40:25;;;;;;;3.58;3.10;;;26.40;72.30;;;;;;5052799;28;20044;-54
2021/06/26 05:42:50;;;;;;;3.60;2.92;;;27.80;69.70;;;;;;5049932;28;20068;-52
2021/06/26 05:45:16;;;;;;;3.33;3.03;;;28.90;67.00;;;;;;5046220;28;20045;-51
2021/06/26 05:47:41;;;;;;;5.40;3.10;;;29.80;65.50;;;;;;5052541;28;20021;-49
2021/06/26 05:50:08;;;;;;;4.47;3.42;;;30.60;63.90;;;;;;5051881;28;20029;-47
2021/06/26 05:52:47;;;;;;;4.82;3.63;;;31.40;62.20;;;;;;5052525;28;20028;-53
2021/06/26 05:55:13;;;;;;;3.42;3.00;;;32.30;57.00;;;;;;5052740;28;20025;-53
2021/06/26 05:57:38;;;;;;;4.38;3.55;;;32.90;59.60;;;;;;5052406;28;20113;-50
2021/06/26 06:00:05;;;;;;;4.13;2.63;;;33.60;58.00;;;;;;5052364;28;20072;-54
2021/06/26 06:02:30;;;;;;;2.90;2.70;;;34.10;57.20;;;;;;5052165;28;20029;-49
2021/06/26 06:04:56;;;;;;;3.20;2.90;;;34.90;55.90;;;;;;5034080;28;20037;-48
2021/06/26 06:07:21;;;;;;;2.72;2.47;;;35.50;54.30;;;;;;5040054;28;20045;-62
2021/06/26 06:09:46;;;;;;;4.13;2.50;;;35.90;53.50;;;;;;5033639;28;20087;-58
2021/06/26 06:12:12;;;;;;;3.05;2.75;;;35.70;51.60;;;;;;5032840;28;20028;-61
2021/06/26 06:14:38;;;;;;;3.15;2.40;;;35.20;52.30;;;;;;5033931;28;20033;-61
2021/06/26 06:17:03;;;;;;;2.78;2.58;;;34.80;52.30;;;;;;5033899;28;20068;-61
2021/06/26 06:19:29;;;;;;;2.75;2.35;;;34.50;51.90;;;;;;5032771;28;20025;-60
2021/06/26 06:21:54;;;;;;;2.72;2.42;;;34.10;52.10;;;;;;5032657;28;20459;-60
2021/06/26 06:24:20;;;;;;;2.70;2.47;;;33.10;52.20;;;;;;5033889;28;20029;-62
2021/06/26 06:26:45;;;;;;;2.78;2.58;;;32.90;52.50;;;;;;5033573;28;20382;-64
2021/06/26 06:29:11;;;;;;;4.28;2.60;;;32.40;52.40;;;;;;5033782;28;20092;-62
2021/06/26 06:31:36;;;;;;;4.72;2.88;;;31.80;52.80;;;;;;5042691;28;20523;-65
2021/06/26 06:34:02;;;;;;;3.97;3.10;;;31.20;52.90;;;;;;5052665;28;20464;-63
2021/06/26 06:36:27;;;;;;;2.95;2.55;;;31.30;53.30;;;;;;5041033;28;20101;-65
2021/06/26 06:38:53;;;;;;;5.95;3.25;;;32.20;52.20;;;;;;5032389;28;20473;-64
2021/06/26 06:41:18;;;;;;;3.03;2.72;;;33.10;50.80;;;;;;5033157;28;20030;-64
2021/06/26 06:43:44;;;;;;;3.40;2.38;;;33.80;50.00;;;;;;5032539;28;20385;-62
2021/06/26 06:46:09;;;;;;;2.70;2.50;;;34.40;49.60;;;;;;5033284;28;20026;-63
2021/06/26 06:48:35;;;;;;;2.78;2.33;;;34.40;48.40;;;;;;5032298;28;20033;-63
2021/06/26 06:51:00;;;;;;;4.57;2.65;;;34.20;48.50;;;;;;5033427;28;20029;-63
2021/06/26 06:53:26;;;;;;;3.20;2.50;;;33.90;48.70;;;;;;5033206;28;20025;-62
2021/06/26 06:55:51;;;;;;;2.45;2.25;;;33.30;49.00;;;;;;5033154;28;20072;-60
2021/06/26 06:58:20;;;;;;;3.78;2.28;;;33.10;49.50;;;;;;5032733;28;20052;-60
2021/06/26 07:00:46;;;;;;;4.22;2.47;;;33.30;49.00;;;;;;5032766;28;20057;-59
2021/06/26 07:03:12;;;;;;;2.95;2.65;;;33.40;48.90;;;;;;5032035;28;20060;-59
2021/06/26 07:05:38;;;;;;;4.20;3.10;;;33.30;47.70;;;;;;5033070;28;20500;-58
2021/06/26 07:08:04;;;;;;;3.45;2.80;;;33.00;47.60;;;;;;5033148;28;20424;-59
2021/06/26 07:10:29;;;;;;;2.80;2.30;;;33.10;47.50;;;;;;5033083;28;20025;-59
2021/06/26 07:12:55;;;;;;;3.55;2.25;;;33.50;47.30;;;;;;5033034;28;20075;-59
2021/06/26 07:15:20;;;;;;;3.75;2.22;;;34.10;46.80;;;;;;5033078;28;20076;-59
2021/06/26 07:17:46;;;;;;;2.60;2.40;;;34.90;46.20;;;;;;5032557;28;20422;-59
2021/06/26 07:20:12;;;;;;;2.75;2.38;;;35.80;45.40;;;;;;5032756;28;20071;-59
2021/06/26 07:22:38;;;;;;;3.45;2.30;;;35.20;45.20;;;;;;5032814;28;20104;-58
2021/06/26 07:25:04;;;;;;;2.28;2.08;;;34.60;46.00;;;;;;5033085;28;20109;-59
2021/06/26 07:27:29;;;;;;;2.10;1.90;;;35.00;45.90;;;;;;5032630;28;20033;-59
2021/06/26 07:29:55;;;;;;;2.42;2.22;;;35.40;45.50;;;;;;5031595;28;20034;-59
2021/06/26 07:32:20;;;;;;;2.60;2.20;;;36.00;44.90;;;;;;5048151;28;20465;-59
2021/06/26 07:34:46;;;;;;;1.95;1.85;;;36.90;43.80;;;;;;5051848;28;20695;-58
2021/06/26 07:37:11;;;;;;;2.15;2.00;;;37.80;43.00;;;;;;5034198;28;20116;-59
2021/06/26 07:39:37;;;;;;;2.85;2.30;;;37.00;42.90;;;;;;5032594;28;20465;-59
2021/06/26 07:42:03;;;;;;;2.85;2.22;;;35.70;43.40;;;;;;5032628;28;20025;-59
2021/06/26 07:44:29;;;;;;;2.63;2.33;;;34.30;44.10;;;;;;5032527;28;20021;-59
2021/06/26 07:46:54;;;;;;;2.35;2.15;;;33.20;44.90;;;;;;5032707;28;20028;-59
2021/06/26 07:49:20;;;;;;;2.35;2.10;;;32.30;45.60;;;;;;5031677;28;20028;-59
2021/06/26 07:51:45;;;;;;;2.40;2.10;;;31.70;46.20;;;;;;5032578;28;20119;-59
2021/06/26 07:54:11;;;;;;;4.22;2.50;;;31.60;46.30;;;;;;5032549;28;20029;-59
2021/06/26 07:56:37;;;;;;;2.78;2.47;;;32.70;45.20;;;;;;5032279;28;20030;-59
2021/06/26 07:59:02;;;;;;;2.67;2.20;;;32.80;44.20;;;;;;5030663;28;20428;-58
2021/06/26 08:01:28;;;;;;;2.38;2.17;;;33.90;43.80;;;;;;5032532;28;20060;-59
2021/06/26 08:03:53;;;;;;;2.60;2.40;;;35.40;42.40;;;;;;5031475;28;20017;-59
2021/06/26 08:06:19;;;;;;;2.40;2.20;;;36.60;41.40;;;;;;5032508;28;20025;-59
2021/06/26 08:08:44;;;;;;;2.65;2.13;;;36.60;40.10;;;;;;5032336;28;20531;-59
2021/06/26 08:11:10;;;;;;;2.25;2.05;;;35.40;40.60;;;;;;5032505;28;20033;-59
2021/06/26 08:13:35;;;;;;;2.78;2.58;;;36.20;40.70;;;;;;5031833;28;20436;-59
2021/06/26 08:16:01;;;;;;;3.42;2.10;;;36.20;39.70;;;;;;5031105;28;20526;-58
2021/06/26 08:18:27;;;;;;;2.60;2.00;;;34.90;40.80;;;;;;5031255;28;20083;-57
2021/06/26 08:20:52;;;;;;;3.05;2.08;;;33.40;41.90;;;;;;5032198;28;20048;-59
2021/06/26 08:23:18;;;;;;;2.45;2.03;;;32.20;43.30;;;;;;5035221;28;20368;-59
2021/06/26 08:25:43;;;;;;;2.35;2.20;;;31.00;44.50;;;;;;5051882;28;20500;-59
2021/06/26 08:28:09;;;;;;;2.30;2.10;;;29.90;46.10;;;;;;5049698;28;20033;-60
2021/06/26 08:30:34;;;;;;;3.85;2.78;;;28.90;47.20;;;;;;5031145;28;20441;-60
2021/06/26 08:33:00;;;;;;;2.85;2.60;;;30.00;46.90;;;;;;5050826;28;20045;-60
2021/06/26 08:35:25;;;;;;;3.15;2.85;;;32.20;44.80;;;;;;5051960;28;20040;-61
2021/06/26 08:37:51;;;;;;;3.50;2.22;;;34.10;43.40;;;;;;5051758;28;20481;-61
2021/06/26 08:40:18;;;;;;;4.63;2.40;;;35.80;41.80;;;;;;5051877;28;20029;-60
2021/06/26 08:42:44;;;;;;;2.45;2.00;;;37.40;40.70;;;;;;5031673;28;20556;-60
2021/06/26 08:45:15;;;;;;;2.05;1.88;;;38.40;39.60;;;;;;5031489;28;20103;-61
2021/06/26 08:47:41;;;;;;;2.42;2.22;;;39.50;37.70;;;;;;5030149;28;20018;-60
2021/06/26 08:50:07;;;;;;;2.40;2.20;;;39.70;37.80;;;;;;5031124;28;20079;-61
2021/06/26 08:52:34;;;;;;;2.25;2.05;;;39.80;37.40;;;;;;5031852;28;20484;-59
2021/06/26 08:54:59;;;;;;;3.85;2.58;;;40.60;36.60;;;;;;5031822;28;20083;-60
2021/06/26 08:57:31;;;;;;;2.58;2.20;;;41.50;35.40;;;;;;5031698;28;20037;-61
2021/06/26 08:59:59;;;;;;;2.08;1.88;;;41.70;34.40;;;;;;5030099;28;20053;-61
2021/06/26 09:02:27;;;;;;;2.15;1.67;;;40.30;35.80;;;;;;5031872;28;20465;-60
2021/06/26 09:04:53;;;;;;;3.25;1.88;;;38.50;37.00;;;;;;5030596;28;20033;-59
2021/06/26 09:07:30;;;;;;;2.53;2.30;;;36.70;38.00;;;;;;5032866;28;20082;-57
2021/06/26 09:09:56;;;;;;;2.17;2.05;;;35.00;38.80;;;;;;5035110;28;20108;-59
2021/06/26 09:12:25;;;;;;;3.20;2.08;;;33.70;40.30;;;;;;5035183;28;20496;-58
2021/06/26 09:14:51;;;;;;;2.58;2.38;;;32.70;40.80;;;;;;5034963;28;20125;-59
2021/06/26 09:17:18;;;;;;;2.90;2.20;;;31.70;42.10;;;;;;5035201;28;20033;-59
2021/06/26 09:19:59;;;;;;;2.25;1.92;;;31.70;42.60;;;;;;5032732;28;20025;-59
2021/06/26 09:22:46;;;;;;;2.20;1.98;;;33.40;41.80;;;;;;5034881;28;20095;-59
2021/06/26 09:25:31;;;;;;;2.88;2.38;;;35.10;39.90;;;;;;5035025;28;20021;-59
2021/06/26 09:27:59;;;;;;;2.45;2.25;;;36.50;37.80;;;;;;5034926;28;20022;-60
2021/06/26 09:30:35;;;;;;;3.03;2.42;;;37.10;37.50;;;;;;5034956;28;20373;-59
2021/06/26 09:33:22;;;;;;;2.65;2.25;;;37.70;35.20;;;;;;5013868;28;20489;-60
2021/06/26 09:35:59;;;;;;;2.03;1.83;;;37.00;35.60;;;;;;5021642;28;20021;-58
2021/06/26 09:38:25;;;;;;;1.52;1.40;;;35.70;37.30;;;;;;5034882;28;20488;-60
2021/06/26 09:40:51;;;;;;;2.50;2.20;;;34.70;38.70;;;;;;5034351;28;20117;-60
2021/06/26 09:43:26;;;;;;;2.30;2.10;;;34.20;39.10;;;;;;5034217;28;20469;-60
2021/06/26 09:46:02;;;;;;;2.83;2.47;;;34.00;38.40;;;;;;5034334;28;20040;-59
2021/06/26 09:48:27;;;;;;;2.50;2.30;;;33.70;38.70;;;;;;5033689;28;20112;-60
2021/06/26 09:50:54;;;;;;;2.40;2.20;;;34.40;38.10;;;;;;5034288;28;20156;-61
2021/06/26 09:53:19;;;;;;;2.30;2.10;;;35.20;36.60;;;;;;5034585;28;20034;-60
2021/06/26 09:55:53;;;;;;;1.95;1.85;;;35.60;36.40;;;;;;5034180;28;20071;-60
2021/06/26 09:58:18;;;;;;;2.83;1.98;;;35.60;36.60;;;;;;5034312;28;20024;-61
2021/06/26 10:00:44;;;;;;;4.20;2.42;;;35.20;36.50;;;;;;5033802;28;20049;-58
2021/06/26 10:03:14;;;;;;;2.88;2.55;;;34.70;37.40;;;;;;5033145;28;20059;-60
2021/06/26 10:05:42;;;;;;;2.33;2.13;;;34.50;37.10;;;;;;5033690;28;20033;-59
2021/06/26 10:08:08;;;;;;;2.55;2.25;;;33.90;37.20;;;;;;5031399;28;20472;-59
2021/06/26 10:10:34;;;;;;;3.63;1.90;;;33.60;37.80;;;;;;5033734;28;20029;-58
2021/06/26 10:13:00;;;;;;;1.80;1.70;;;33.10;37.80;;;;;;5030500;28;20057;-60
2021/06/26 10:15:28;;;;;;;2.50;2.30;;;32.60;38.50;;;;;;5033909;28;20038;-61
2021/06/26 10:17:54;;;;;;;2.25;2.05;;;32.20;39.10;;;;;;5033003;28;20017;-59
2021/06/26 10:20:22;;;;;;;3.97;2.17;;;31.60;39.80;;;;;;5033920;28;20045;-59
2021/06/26 10:22:56;;;;;;;2.35;2.15;;;31.10;40.40;;;;;;5033805;28;20104;-59
2021/06/26 10:25:27;;;;;;;3.00;2.40;;;30.50;41.20;;;;;;5033667;28;20026;-58
2021/06/26 10:28:04;;;;;;;2.58;2.38;;;30.00;41.70;;;;;;5032129;28;20018;-58
2021/06/26 10:30:31;;;;;;;2.47;2.28;;;29.90;42.00;;;;;;5033935;28;20053;-57
2021/06/26 10:32:59;;;;;;;2.35;2.15;;;29.60;42.20;;;;;;5052621;28;20017;-59
2021/06/26 10:35:27;;;;;;;2.47;1.85;;;29.30;42.30;;;;;;5049859;28;20469;-60
2021/06/26 10:38:08;;;;;;;3.72;2.22;;;29.20;42.60;;;;;;5033641;28;20083;-59
2021/06/26 10:40:38;;;;;;;2.50;2.30;;;29.00;43.50;;;;;;5033287;28;20060;-59
2021/06/26 10:43:26;;;;;;;3.00;2.75;;;28.80;43.60;;;;;;5033567;28;20049;-59
2021/06/26 10:46:05;;;;;;;2.60;2.40;;;28.60;44.10;;;;;;5033160;28;20029;-59
2021/06/26 10:48:31;;;;;;;3.28;2.40;;;28.40;44.10;;;;;;5032765;28;20022;-58
2021/06/26 10:50:58;;;;;;;4.20;2.42;;;28.30;44.60;;;;;;5033337;28;20033;-59
2021/06/26 10:53:32;;;;;;;2.67;2.38;;;28.30;44.40;;;;;;5033512;28;20033;-59
2021/06/26 10:56:10;;;;;;;2.92;2.70;;;28.10;44.50;;;;;;5033376;28;20025;-58
2021/06/26 10:58:43;;;;;;;2.60;2.40;;;27.90;44.70;;;;;;5033389;28;20034;-59
2021/06/26 11:01:24;;;;;;;2.15;1.98;;;27.80;45.10;;;;;;5033078;28;20056;-59
2021/06/26 11:03:52;;;;;;;2.03;1.88;;;28.00;45.30;;;;;;5032221;28;20034;-59
2021/06/26 11:06:26;;;;;;;2.20;2.00;;;28.30;44.30;;;;;;5033368;28;20550;-59
2021/06/26 11:09:01;;;;;;;2.53;1.83;;;28.60;44.30;;;;;;5031870;28;20036;-59
2021/06/26 11:11:50;;;;;;;4.05;2.75;;;28.90;44.00;;;;;;5032191;28;20034;-59
2021/06/26 11:14:24;;;;;;;3.00;2.70;;;29.30;43.00;;;;;;5033049;28;20099;-59
2021/06/26 11:16:55;;;;;;;3.05;2.75;;;29.10;42.30;;;;;;5033019;28;20029;-60
2021/06/26 11:19:23;;;;;;;2.00;1.80;;;28.90;42.70;;;;;;5031905;28;20029;-59
2021/06/26 11:21:53;;;;;;;3.95;1.98;;;28.80;43.00;;;;;;5033079;28;20029;-59
2021/06/26 11:24:35;;;;;;;2.20;2.00;;;28.90;43.30;;;;;;5031647;28;20381;-59
2021/06/26 11:27:01;;;;;;;2.85;2.50;;;29.20;42.70;;;;;;5032834;28;20044;-58
2021/06/26 11:29:31;;;;;;;2.10;1.90;;;29.10;42.70;;;;;;5032569;28;20104;-59
2021/06/26 11:31:59;;;;;;;2.53;2.30;;;29.00;42.80;;;;;;5044534;28;20021;-59
2021/06/26 11:34:26;;;;;;;2.00;1.90;;;29.10;42.60;;;;;;5050483;28;20052;-59
2021/06/26 11:37:01;;;;;;;2.47;2.10;;;29.20;43.20;;;;;;5042384;28;20476;-59
2021/06/26 11:39:28;;;;;;;3.28;2.10;;;29.10;42.80;;;;;;5052350;28;20028;-58
2021/06/26 11:41:53;;;;;;;2.22;2.03;;;28.90;42.70;;;;;;5052435;28;20029;-59
2021/06/26 11:44:33;;;;;;;3.85;2.22;;;28.70;42.90;;;;;;5052338;28;20091;-58
2021/06/26 11:47:00;;;;;;;2.58;2.38;;;28.60;43.40;;;;;;5050859;28;20029;-59
2021/06/26 11:49:41;;;;;;;2.40;2.20;;;28.50;43.40;;;;;;5051346;28;20063;-59
2021/06/26 11:52:12;;;;;;;2.40;2.10;;;28.20;43.40;;;;;;5052417;28;20051;-59
2021/06/26 11:54:38;;;;;;;5.75;2.35;;;27.70;43.40;;;;;;5052506;28;20492;-57
2021/06/26 11:57:06;;;;;;;2.75;2.00;;;27.40;44.10;;;;;;5052313;28;20032;-56
2021/06/26 11:59:46;;;;;;;2.92;2.28;;;27.20;44.50;;;;;;5052257;28;20514;-59
2021/06/26 12:02:13;;;;;;;3.88;2.20;;;27.00;44.80;;;;;;5035853;28;20037;-60
2021/06/26 12:04:39;;;;;;;2.67;2.38;;;27.00;44.80;;;;;;5031546;28;20112;-60
2021/06/26 12:07:07;;;;;;;2.38;2.17;;;26.90;44.90;;;;;;5032228;28;20053;-58
2021/06/26 12:09:33;;;;;;;2.30;2.10;;;26.90;44.70;;;;;;5032206;28;20438;-58
2021/06/26 12:12:02;;;;;;;2.88;2.20;;;27.00;44.60;;;;;;5032374;28;20029;-58
2021/06/26 12:14:31;;;;;;;2.95;2.40;;;27.00;44.20;;;;;;5032408;28;20032;-59
2021/06/26 12:17:11;;;;;;;4.40;1.92;;;26.90;44.00;;;;;;5032284;28;20033;-60
2021/06/26 12:19:38;;;;;;;2.95;2.13;;;27.00;44.50;;;;;;5031161;28;20029;-58
2021/06/26 12:22:05;;;;;;;3.10;2.15;;;27.10;44.00;;;;;;5032033;28;20021;-59
2021/06/26 12:24:40;;;;;;;2.17;1.90;;;27.30;43.00;;;;;;5032329;28;20029;-59
2021/06/26 12:27:16;;;;;;;2.00;1.90;;;27.40;42.90;;;;;;5031574;28;20109;-59
2021/06/26 12:29:53;;;;;;;2.00;1.90;;;27.30;42.60;;;;;;5032205;28;20100;-57
2021/06/26 12:32:33;;;;;;;2.42;1.95;;;27.20;42.60;;;;;;5031826;28;20124;-59
2021/06/26 12:35:00;;;;;;;2.10;1.90;;;26.90;42.90;;;;;;5030864;28;20022;-58
2021/06/26 12:37:36;;;;;;;2.78;2.15;;;26.80;43.20;;;;;;5030900;28;20048;-59
2021/06/26 12:40:06;;;;;;;2.55;1.80;;;26.80;43.40;;;;;;5031849;28;20025;-60
2021/06/26 12:43:09;;;;;;;2.67;2.20;;;26.90;43.20;;;;;;5033785;28;20025;-60
2021/06/26 12:45:35;;;;;;;2.33;2.13;;;27.20;42.30;;;;;;5035770;28;20026;-60
2021/06/26 12:48:10;;;;;;;1.70;1.60;;;27.40;42.10;;;;;;5034857;28;20155;-60
2021/06/26 12:53:48;;;;;;;2.08;1.88;;;27.90;41.60;;;;;;5035986;28;20045;-60